createdAt,value
2022-08-26T00:01:46.225Z,101438.34
2022-08-26T00:04:13.045Z,101435.50
2022-08-26T00:06:42.492Z,101439.09
2022-08-26T00:09:12.788Z,101431.03
2022-08-26T00:11:39.371Z,101435.31
2022-08-26T00:14:06.464Z,101439.06
2022-08-26T00:16:37.853Z,101439.06
2022-08-26T00:19:07.720Z,101442.97
2022-08-26T00:21:35.078Z,101434.97
2022-08-26T00:24:04.439Z,101439.44
2022-08-26T00:26:31.220Z,101435.22
2022-08-26T00:28:57.794Z,101429.59
2022-08-26T00:31:24.399Z,101427.13
2022-08-26T00:33:52.432Z,101440.03
2022-08-26T00:36:20.593Z,101435.25
2022-08-26T00:38:48.059Z,101442.44
2022-08-26T00:41:14.899Z,101440.91
2022-08-26T00:43:47.362Z,101444.47
2022-08-26T00:46:16.652Z,101447.38
2022-08-26T00:48:43.993Z,101449.00
2022-08-26T00:51:15.416Z,101452.09
2022-08-26T00:53:45.240Z,101452.09
2022-08-26T00:56:15.815Z,101449.22
2022-08-26T00:58:43.037Z,101452.03
2022-08-26T01:01:10.367Z,101455.66
2022-08-26T01:03:37.616Z,101458.16
2022-08-26T01:06:05.108Z,101454.47
2022-08-26T01:08:40.927Z,101457.59
2022-08-26T01:11:08.094Z,101450.16
2022-08-26T01:13:36.435Z,101446.97
2022-08-26T01:16:04.042Z,101449.38
2022-08-26T01:18:31.553Z,101451.78
2022-08-26T01:21:01.955Z,101445.94
2022-08-26T01:23:32.413Z,101444.84
2022-08-26T01:26:02.907Z,101441.94
2022-08-26T01:28:32.964Z,101440.75
2022-08-26T01:31:02.515Z,101444.16
2022-08-26T01:33:42.159Z,101444.97
2022-08-26T01:36:09.562Z,101450.63
2022-08-26T01:38:37.586Z,101440.06
2022-08-26T01:41:05.001Z,101440.88
2022-08-26T01:43:47.682Z,101445.25
2022-08-26T01:46:16.350Z,101443.31
2022-08-26T01:48:44.659Z,101444.06
2022-08-26T01:51:11.988Z,101442.88
2022-08-26T01:53:41.779Z,101442.00
2022-08-26T01:56:12.719Z,101438.72
2022-08-26T01:58:42.464Z,101444.84
2022-08-26T02:01:10.170Z,101450.53
2022-08-26T02:03:43.118Z,101450.91
2022-08-26T02:06:10.333Z,101452.63
2022-08-26T02:08:39.051Z,101451.34
2022-08-26T02:11:07.583Z,101455.81
2022-08-26T02:13:37.381Z,101454.56
2022-08-26T02:16:04.651Z,101457.47
2022-08-26T02:18:36.535Z,101453.59
2022-08-26T02:21:06.672Z,101454.94
2022-08-26T02:23:33.562Z,101451.56
2022-08-26T02:26:05.516Z,101453.13
2022-08-26T02:28:35.691Z,101456.19
2022-08-26T02:31:02.979Z,101452.91
2022-08-26T02:33:31.712Z,101454.47
2022-08-26T02:35:58.588Z,101454.47
2022-08-26T02:38:25.307Z,101458.91
2022-08-26T02:40:51.934Z,101457.78
2022-08-26T02:43:18.661Z,101458.25
2022-08-26T02:46:01.941Z,101454.97
2022-08-26T02:48:29.114Z,101462.63
2022-08-26T02:50:55.639Z,101461.03
2022-08-26T02:53:25.366Z,101460.25
2022-08-26T02:55:52.447Z,101462.69
2022-08-26T02:58:19.086Z,101463.97
2022-08-26T03:00:52.564Z,101465.22
2022-08-26T03:03:23.582Z,101463.56
2022-08-26T03:05:50.427Z,101463.25
2022-08-26T03:08:17.061Z,101464.81
2022-08-26T03:10:44.177Z,101469.34
2022-08-26T03:13:10.770Z,101469.03
2022-08-26T03:15:37.507Z,101458.84
2022-08-26T03:18:04.862Z,101464.16
2022-08-26T03:20:32.985Z,101465.38
2022-08-26T03:22:59.696Z,101462.06
2022-08-26T03:25:26.784Z,101461.31
2022-08-26T03:27:53.846Z,101458.09
2022-08-26T03:30:39.829Z,101455.72
2022-08-26T03:33:13.033Z,101454.41
2022-08-26T03:35:42.076Z,101452.44
2022-08-26T03:38:09.098Z,101450.06
2022-08-26T03:40:35.835Z,101461.72
2022-08-26T03:43:03.016Z,101454.91
2022-08-26T03:45:29.757Z,101456.16
2022-08-26T03:47:57.871Z,101448.84
2022-08-26T03:50:25.750Z,101444.06
2022-08-26T03:52:55.706Z,101447.66
2022-08-26T03:55:23.887Z,101441.06
2022-08-26T03:57:50.634Z,101445.03
2022-08-26T04:00:18.369Z,101437.75
2022-08-26T04:02:46.004Z,101432.94
2022-08-26T04:05:13.749Z,101433.44
2022-08-26T04:07:40.356Z,101434.19
2022-08-26T04:10:08.791Z,101445.16
2022-08-26T04:12:37.303Z,101444.44
2022-08-26T04:15:04.661Z,101436.44
2022-08-26T04:17:31.220Z,101444.19
2022-08-26T04:19:58.693Z,101443.78
2022-08-26T04:22:25.809Z,101443.78
2022-08-26T04:24:52.423Z,101441.03
2022-08-26T04:27:20.346Z,101441.06
2022-08-26T04:29:53.551Z,101440.25
2022-08-26T04:32:22.080Z,101443.09
2022-08-26T04:34:48.991Z,101446.78
2022-08-26T04:37:16.399Z,101442.69
2022-08-26T04:39:44.639Z,101441.13
2022-08-26T04:42:13.418Z,101431.78
2022-08-26T04:44:41.763Z,101432.09
2022-08-26T04:47:08.740Z,101428.91
2022-08-26T04:49:35.771Z,101429.16
2022-08-26T04:52:02.612Z,101433.31
2022-08-26T04:54:29.669Z,101439.81
2022-08-26T04:56:56.367Z,101442.34
2022-08-26T04:59:23.033Z,101445.13
2022-08-26T05:01:53.385Z,101451.13
2022-08-26T05:04:20.588Z,101454.41
2022-08-26T05:06:47.542Z,101443.03
2022-08-26T05:09:14.645Z,101442.22
2022-08-26T05:11:42.062Z,101443.03
2022-08-26T05:14:08.667Z,101444.28
2022-08-26T05:16:35.247Z,101445.16
2022-08-26T05:19:04.341Z,101452.50
2022-08-26T05:21:31.277Z,101452.13
2022-08-26T05:23:57.959Z,101458.16
2022-08-26T05:26:29.052Z,101459.41
2022-08-26T05:28:56.631Z,101461.88
2022-08-26T05:31:24.082Z,101465.06
2022-08-26T05:33:50.697Z,101472.38
2022-08-26T05:36:20.815Z,101464.69
2022-08-26T05:38:48.790Z,101472.41
2022-08-26T05:41:16.989Z,101472.78
2022-08-26T05:43:43.843Z,101474.19
2022-08-26T05:46:10.746Z,101469.75
2022-08-26T05:48:37.925Z,101476.56
2022-08-26T05:51:06.237Z,101474.72
2022-08-26T05:53:34.829Z,101484.00
2022-08-26T05:56:03.558Z,101480.75
2022-08-26T05:58:30.371Z,101475.88
2022-08-26T06:00:58.734Z,101482.41
2022-08-26T06:03:25.397Z,101485.28
2022-08-26T06:05:51.996Z,101485.69
2022-08-26T06:08:21.137Z,101497.50
2022-08-26T06:10:50.981Z,101491.84
2022-08-26T06:13:19.439Z,101494.59
2022-08-26T06:15:47.112Z,101498.41
2022-08-26T06:18:14.656Z,101494.81
2022-08-26T06:20:44.108Z,101505.59
2022-08-26T06:23:42.873Z,101504.59
2022-08-26T06:26:11.360Z,101512.66
2022-08-26T06:28:38.203Z,101516.59
2022-08-26T06:31:06.503Z,101512.09
2022-08-26T06:33:33.408Z,101516.28
2022-08-26T06:36:01.193Z,101513.06
2022-08-26T06:38:28.320Z,101515.91
2022-08-26T06:40:55.012Z,101517.31
2022-08-26T06:43:23.827Z,101514.19
2022-08-26T06:45:50.735Z,101525.50
2022-08-26T06:48:18.677Z,101525.66
2022-08-26T06:50:45.955Z,101517.25
2022-08-26T06:53:13.664Z,101532.13
2022-08-26T06:55:41.551Z,101533.06
2022-08-26T06:58:09.521Z,101525.81
2022-08-26T07:00:38.435Z,101528.25
2022-08-26T07:03:08.467Z,101525.94
2022-08-26T07:05:35.968Z,101531.97
2022-08-26T07:08:03.078Z,101528.25
2022-08-26T07:10:29.752Z,101534.72
2022-08-26T07:12:56.322Z,101540.31
2022-08-26T07:15:24.004Z,101537.13
2022-08-26T07:17:59.070Z,101529.91
2022-08-26T07:20:26.484Z,101531.16
2022-08-26T07:22:53.949Z,101537.56
2022-08-26T07:25:20.593Z,101544.06
2022-08-26T07:27:54.302Z,101536.09
2022-08-26T07:30:21.355Z,101539.22
2022-08-26T07:32:48.293Z,101537.66
2022-08-26T07:35:16.225Z,101543.72
2022-08-26T07:37:43.361Z,101548.00
2022-08-26T07:40:10.380Z,101557.72
2022-08-26T07:42:37.289Z,101554.97
2022-08-26T07:45:04.097Z,101562.28
2022-08-26T07:47:30.667Z,101560.56
2022-08-26T07:49:57.607Z,101556.44
2022-08-26T07:52:27.378Z,101558.00
2022-08-26T07:54:54.378Z,101556.97
2022-08-26T07:57:21.032Z,101558.66
2022-08-26T07:59:47.577Z,101557.91
2022-08-26T08:02:14.309Z,101563.22
2022-08-26T08:04:40.909Z,101561.25
2022-08-26T08:07:07.595Z,101562.84
2022-08-26T08:09:40.753Z,101555.59
2022-08-26T08:12:07.505Z,101566.25
2022-08-26T08:14:36.526Z,101567.91
2022-08-26T08:17:03.419Z,101571.13
2022-08-26T08:19:38.929Z,101568.72
2022-08-26T08:22:17.139Z,101569.91
2022-08-26T08:24:45.706Z,101568.28
2022-08-26T08:27:18.161Z,101574.78
2022-08-26T08:29:48.119Z,101567.88
2022-08-26T08:32:15.780Z,101567.91
2022-08-26T08:37:14.477Z,101562.66
2022-08-26T08:39:41.935Z,101560.66
2022-08-26T08:42:27.351Z,101563.88
2022-08-26T08:44:58.161Z,101565.13
2022-08-26T08:47:29.086Z,101573.94
2022-08-26T08:50:00.146Z,101576.19
2022-08-26T08:52:29.069Z,101571.47
2022-08-26T08:54:55.855Z,101573.50
2022-08-26T08:57:27.827Z,101572.72
2022-08-26T08:59:58.633Z,101576.81
2022-08-26T09:02:30.072Z,101577.25
2022-08-26T09:05:07.133Z,101583.00
2022-08-26T09:07:37.567Z,101582.19
2022-08-26T09:10:06.132Z,101584.75
2022-08-26T09:12:34.868Z,101580.56
2022-08-26T09:15:02.726Z,101585.47
2022-08-26T09:17:35.372Z,101575.28
2022-08-26T09:20:07.316Z,101574.88
2022-08-26T09:22:35.181Z,101578.16
2022-08-26T09:25:04.322Z,101576.13
2022-08-26T09:27:43.721Z,101576.31
2022-08-26T09:30:12.459Z,101574.91
2022-08-26T09:32:39.921Z,101574.22
2022-08-26T09:35:08.080Z,101576.81
2022-08-26T09:37:36.105Z,101580.41
2022-08-26T09:40:13.247Z,101579.28
2022-08-26T09:42:39.847Z,101574.44
2022-08-26T09:45:10.548Z,101581.75
2022-08-26T09:47:38.268Z,101573.91
2022-08-26T09:50:12.387Z,101571.19
2022-08-26T09:52:40.412Z,101572.44
2022-08-26T09:55:12.449Z,101575.72
2022-08-26T09:57:45.918Z,101574.00
2022-08-26T10:00:25.632Z,101568.75
2022-08-26T10:02:54.762Z,101577.72
2022-08-26T10:05:29.735Z,101576.06
2022-08-26T10:07:57.041Z,101574.75
2022-08-26T10:10:30.100Z,101571.97
2022-08-26T10:13:03.177Z,101568.66
2022-08-26T10:15:36.043Z,101570.72
2022-08-26T10:18:06.425Z,101569.81
2022-08-26T10:20:36.298Z,101570.41
2022-08-26T10:23:06.067Z,101572.06
2022-08-26T10:25:34.383Z,101565.94
2022-08-26T10:28:06.904Z,101563.81
2022-08-26T10:30:38.110Z,101566.63
2022-08-26T10:33:06.476Z,101569.38
2022-08-26T10:35:35.050Z,101566.72
2022-08-26T10:38:04.792Z,101567.16
2022-08-26T10:40:39.041Z,101570.63
2022-08-26T10:43:11.317Z,101569.81
2022-08-26T10:45:42.837Z,101553.28
2022-08-26T10:48:12.644Z,101569.59
2022-08-26T10:50:41.472Z,101553.34
2022-08-26T10:53:11.703Z,101560.66
2022-08-26T10:55:43.237Z,101563.09
2022-08-26T10:58:26.761Z,101559.84
2022-08-26T11:01:17.579Z,101561.84
2022-08-26T11:03:54.103Z,101563.91
2022-08-26T11:06:25.816Z,101552.06
2022-08-26T11:08:53.190Z,101564.16
2022-08-26T11:11:41.913Z,101562.59
2022-08-26T11:14:09.045Z,101559.50
2022-08-26T11:16:42.786Z,101566.28
2022-08-26T11:19:11.509Z,101565.94
2022-08-26T11:21:58.333Z,101562.69
2022-08-26T11:24:43.352Z,101570.84
2022-08-26T11:27:12.202Z,101563.09
2022-08-26T11:29:59.994Z,101567.19
2022-08-26T11:32:44.864Z,101561.22
2022-08-26T11:35:34.775Z,101568.59
2022-08-26T11:38:14.652Z,101570.00
2022-08-26T11:40:42.017Z,101560.66
2022-08-26T11:43:13.156Z,101565.09
2022-08-26T11:45:42.234Z,101562.19
2022-08-26T11:48:15.404Z,101563.44
2022-08-26T11:50:52.204Z,101558.22
2022-08-26T11:53:20.295Z,101549.63
2022-08-26T11:55:51.352Z,101564.69
2022-08-26T11:58:20.703Z,101562.25
2022-08-26T12:00:50.791Z,101558.47
2022-08-26T12:03:19.368Z,101552.59
2022-08-26T12:05:47.385Z,101551.16
2022-08-26T12:08:16.690Z,101547.59
2022-08-26T12:10:44.765Z,101556.59
2022-08-26T12:13:19.797Z,101558.22
2022-08-26T12:15:51.923Z,101548.84
2022-08-26T12:18:29.547Z,101550.81
2022-08-26T12:20:58.592Z,101545.63
2022-08-26T12:23:26.953Z,101552.50
2022-08-26T12:26:07.394Z,101541.41
2022-08-26T12:28:42.331Z,101540.59
2022-08-26T12:31:09.016Z,101549.19
2022-08-26T12:33:38.535Z,101542.91
2022-08-26T12:36:06.067Z,101534.84
2022-08-26T12:38:35.245Z,101549.88
2022-08-26T12:41:03.486Z,101543.31
2022-08-26T12:43:37.132Z,101540.88
2022-08-26T12:46:04.717Z,101544.16
2022-08-26T12:48:36.031Z,101539.47
2022-08-26T12:51:03.255Z,101544.94
2022-08-26T12:53:32.282Z,101544.97
2022-08-26T12:56:00.591Z,101548.31
2022-08-26T12:58:31.695Z,101552.53
2022-08-26T13:01:18.598Z,101546.53
2022-08-26T13:03:45.671Z,101542.38
2022-08-26T13:06:16.021Z,101553.47
2022-08-26T13:08:43.322Z,101557.41
2022-08-26T13:11:10.963Z,101545.34
2022-08-26T13:13:39.412Z,101549.13
2022-08-26T13:16:06.993Z,101547.63
2022-08-26T13:18:33.589Z,101543.56
2022-08-26T13:21:00.205Z,101530.50
2022-08-26T13:23:26.845Z,101542.03
2022-08-26T13:25:53.452Z,101536.03
2022-08-26T13:28:20.051Z,101536.94
2022-08-26T13:30:49.634Z,101520.13
2022-08-26T13:33:18.298Z,101525.28
2022-08-26T13:35:44.946Z,101530.25
2022-08-26T13:38:30.899Z,101521.88
2022-08-26T13:41:00.444Z,101529.38
2022-08-26T13:43:27.694Z,101521.75
2022-08-26T13:45:55.834Z,101519.94
2022-08-26T13:48:23.596Z,101514.38
2022-08-26T13:50:50.703Z,101523.13
2022-08-26T13:53:18.699Z,101517.69
2022-08-26T13:55:45.331Z,101524.69
2022-08-26T13:58:12.069Z,101523.03
2022-08-26T14:00:39.775Z,101518.94
2022-08-26T14:03:13.096Z,101518.31
2022-08-26T14:05:40.276Z,101517.94
2022-08-26T14:08:07.500Z,101518.75
2022-08-26T14:10:34.355Z,101515.84
2022-08-26T14:13:00.975Z,101510.56
2022-08-26T14:15:27.812Z,101515.41
2022-08-26T14:17:55.925Z,101508.47
2022-08-26T14:20:25.529Z,101504.78
2022-08-26T14:23:12.629Z,101512.22
2022-08-26T14:25:39.184Z,101512.97
2022-08-26T14:28:05.729Z,101516.88
2022-08-26T14:30:32.536Z,101510.88
2022-08-26T14:33:01.946Z,101505.28
2022-08-26T14:35:30.857Z,101513.81
2022-08-26T14:37:57.507Z,101518.16
2022-08-26T14:40:28.559Z,101520.50
2022-08-26T14:42:55.508Z,101517.91
2022-08-26T14:45:26.950Z,101521.19
2022-08-26T14:47:56.573Z,101502.47
2022-08-26T14:50:24.281Z,101514.31
2022-08-26T14:53:10.836Z,101514.19
2022-08-26T14:55:38.910Z,101512.53
2022-08-26T14:58:05.682Z,101508.53
2022-08-26T15:00:32.550Z,101515.81
2022-08-26T15:02:59.197Z,101517.47
2022-08-26T15:05:25.876Z,101510.63
2022-08-26T15:07:53.960Z,101510.22
2022-08-26T15:10:20.663Z,101496.34
2022-08-26T15:12:47.444Z,101501.28
2022-08-26T15:15:15.211Z,101502.09
2022-08-26T15:17:41.988Z,101506.97
2022-08-26T15:20:09.570Z,101511.78
2022-08-26T15:22:36.155Z,101511.34
2022-08-26T15:25:04.401Z,101507.34
2022-08-26T15:27:31.248Z,101509.34
2022-08-26T15:29:57.828Z,101511.03
2022-08-26T15:32:24.526Z,101506.97
2022-08-26T15:34:53.032Z,101509.34
2022-08-26T15:37:19.570Z,101502.50
2022-08-26T15:41:11.191Z,101508.16
2022-08-26T15:43:38.146Z,101513.81
2022-08-26T15:46:05.232Z,101509.31
2022-08-26T15:48:32.172Z,101503.97
2022-08-26T15:51:01.137Z,101508.88
2022-08-26T15:53:30.541Z,101513.31
2022-08-26T15:55:58.730Z,101513.78
2022-08-26T15:58:28.226Z,101518.59
2022-08-26T16:00:55.779Z,101510.00
2022-08-26T16:03:22.910Z,101507.16
2022-08-26T16:05:50.392Z,101506.00
2022-08-26T16:08:17.686Z,101503.19
2022-08-26T16:10:50.409Z,101508.09
2022-08-26T16:13:19.555Z,101500.31
2022-08-26T16:15:48.622Z,101507.59
2022-08-26T16:18:16.400Z,101492.97
2022-08-26T16:20:50.167Z,101504.34
2022-08-26T16:23:36.417Z,101505.56
2022-08-26T16:26:08.268Z,101509.47
2022-08-26T16:28:40.078Z,101504.22
2022-08-26T16:31:10.326Z,101494.94
2022-08-26T16:33:39.980Z,101495.00
2022-08-26T16:36:08.353Z,101499.94
2022-08-26T16:38:35.815Z,101497.50
2022-08-26T16:41:02.960Z,101508.41
2022-08-26T16:43:29.874Z,101505.16
2022-08-26T16:45:56.709Z,101502.47
2022-08-26T16:48:25.026Z,101498.72
2022-08-26T16:50:51.981Z,101497.81
2022-08-26T16:53:19.136Z,101497.41
2022-08-26T16:55:46.613Z,101492.19
2022-08-26T16:58:13.628Z,101491.72
2022-08-26T17:00:40.853Z,101489.19
2022-08-26T17:03:07.770Z,101494.88
2022-08-26T17:05:36.382Z,101487.53
2022-08-26T17:08:04.843Z,101489.22
2022-08-26T17:10:32.869Z,101486.13
2022-08-26T17:13:00.351Z,101487.41
2022-08-26T17:15:27.563Z,101489.31
2022-08-26T17:17:54.922Z,101485.69
2022-08-26T17:20:23.427Z,101475.97
2022-08-26T17:22:53.950Z,101484.84
2022-08-26T17:25:22.654Z,101486.09
2022-08-26T17:27:49.483Z,101483.41
2022-08-26T17:30:17.243Z,101481.50
2022-08-26T17:32:44.304Z,101475.16
2022-08-26T17:35:12.956Z,101473.63
2022-08-26T17:37:40.080Z,101480.91
2022-08-26T17:40:12.656Z,101494.72
2022-08-26T17:42:40.415Z,101482.09
2022-08-26T17:45:09.093Z,101482.81
2022-08-26T17:47:36.058Z,101495.72
2022-08-26T17:50:05.071Z,101482.75
2022-08-26T17:52:32.365Z,101489.50
2022-08-26T17:54:59.425Z,101488.03
2022-08-26T17:57:27.872Z,101488.81
2022-08-26T17:59:56.566Z,101495.69
2022-08-26T18:02:23.989Z,101492.00
2022-08-26T18:04:50.934Z,101487.56
2022-08-26T18:07:18.216Z,101493.81
2022-08-26T18:09:45.428Z,101495.00
2022-08-26T18:12:12.609Z,101491.25
2022-08-26T18:14:40.898Z,101489.63
2022-08-26T18:17:07.859Z,101493.16
2022-08-26T18:19:34.737Z,101496.25
2022-08-26T18:22:01.690Z,101494.16
2022-08-26T18:24:32.615Z,101497.69
2022-08-26T18:26:59.526Z,101500.31
2022-08-26T18:29:27.969Z,101500.59
2022-08-26T18:31:56.388Z,101496.41
2022-08-26T18:34:23.266Z,101502.47
2022-08-26T18:36:58.609Z,101505.09
2022-08-26T18:39:25.461Z,101506.88
2022-08-26T18:41:53.333Z,101508.75
2022-08-26T18:44:23.302Z,101514.28
2022-08-26T18:46:51.103Z,101512.06
2022-08-26T18:49:20.962Z,101506.16
2022-08-26T18:51:51.116Z,101503.19
2022-08-26T18:56:51.039Z,101505.13
2022-08-26T18:59:18.310Z,101500.84
2022-08-26T19:01:45.490Z,101509.91
2022-08-26T19:04:15.317Z,101512.66
2022-08-26T19:06:46.931Z,101512.38
2022-08-26T19:09:14.645Z,101515.09
2022-08-26T19:11:45.407Z,101512.19
2022-08-26T19:14:15.419Z,101514.63
2022-08-26T19:16:44.402Z,101515.13
2022-08-26T19:19:12.045Z,101519.25
2022-08-26T19:21:39.285Z,101516.53
2022-08-26T19:24:12.276Z,101515.91
2022-08-26T19:26:39.214Z,101523.09
2022-08-26T19:29:06.740Z,101518.19
2022-08-26T19:31:33.632Z,101514.09
2022-08-26T19:34:01.866Z,101523.63
2022-08-26T19:36:29.326Z,101525.03
2022-08-26T19:38:56.809Z,101519.91
2022-08-26T19:41:37.045Z,101527.00
2022-08-26T19:44:06.612Z,101523.91
2022-08-26T19:46:33.489Z,101536.66
2022-08-26T19:49:00.369Z,101528.78
2022-08-26T19:51:30.030Z,101540.88
2022-08-26T19:53:59.146Z,101533.44
2022-08-26T19:56:28.241Z,101537.94
2022-08-26T19:58:55.264Z,101540.78
2022-08-26T20:01:23.061Z,101538.41
2022-08-26T20:03:50.554Z,101543.63
2022-08-26T20:06:17.853Z,101541.88
2022-08-26T20:08:44.984Z,101540.38
2022-08-26T20:11:14.533Z,101535.00
2022-08-26T20:13:43.912Z,101544.88
2022-08-26T20:16:12.079Z,101545.94
2022-08-26T20:19:00.523Z,101542.59
2022-08-26T20:21:29.290Z,101543.53
2022-08-26T20:23:59.261Z,101545.06
2022-08-26T20:26:27.778Z,101544.81
2022-08-26T20:28:56.915Z,101545.53
2022-08-26T20:31:24.746Z,101547.09
2022-08-26T20:33:51.854Z,101544.63
2022-08-26T20:36:20.341Z,101549.19
2022-08-26T20:38:47.617Z,101553.91
2022-08-26T20:41:14.913Z,101544.78
2022-08-26T20:43:44.826Z,101548.88
2022-08-26T20:46:18.110Z,101557.75
2022-08-26T20:48:46.736Z,101554.41
2022-08-26T20:51:13.889Z,101553.66
2022-08-26T20:53:41.403Z,101553.44
2022-08-26T20:56:09.781Z,101555.34
2022-08-26T20:58:38.426Z,101555.19
2022-08-26T21:01:07.957Z,101552.13
2022-08-26T21:03:36.896Z,101555.75
2022-08-26T21:06:04.017Z,101561.75
2022-08-26T21:08:33.162Z,101557.97
2022-08-26T21:11:00.693Z,101560.34
2022-08-26T21:13:30.752Z,101558.91
2022-08-26T21:16:03.158Z,101554.34
2022-08-26T21:18:30.098Z,101562.66
2022-08-26T21:20:58.325Z,101551.06
2022-08-26T21:23:29.084Z,101558.06
2022-08-26T21:25:56.257Z,101559.94
2022-08-26T21:28:23.408Z,101559.47
2022-08-26T21:30:50.318Z,101563.47
2022-08-26T21:33:17.123Z,101561.19
2022-08-26T21:35:51.436Z,101545.41
2022-08-26T21:38:21.891Z,101553.56
2022-08-26T21:40:57.439Z,101550.75
2022-08-26T21:43:34.750Z,101554.53
2022-08-26T21:46:04.056Z,101550.06
2022-08-26T21:48:32.241Z,101548.91
2022-08-26T21:51:04.408Z,101550.06
2022-08-26T21:53:32.615Z,101549.72
2022-08-26T21:55:59.534Z,101551.94
2022-08-26T21:58:26.470Z,101552.00
2022-08-26T22:00:53.274Z,101553.31
2022-08-26T22:03:20.150Z,101552.00
2022-08-26T22:05:51.600Z,101555.19
2022-08-26T22:08:20.126Z,101556.22
2022-08-26T22:10:51.926Z,101554.44
2022-08-26T22:13:19.061Z,101557.13
2022-08-26T22:15:46.901Z,101549.59
2022-08-26T22:18:13.811Z,101555.91
2022-08-26T22:20:40.864Z,101555.03
2022-08-26T22:23:08.540Z,101553.72
2022-08-26T22:25:35.409Z,101549.28
2022-08-26T22:28:04.095Z,101553.59
2022-08-26T22:30:31.085Z,101548.56
2022-08-26T22:32:57.938Z,101553.69
2022-08-26T22:35:29.243Z,101547.13
2022-08-26T22:38:05.248Z,101549.75
2022-08-26T22:40:32.297Z,101546.31
2022-08-26T22:43:00.414Z,101541.38
2022-08-26T22:45:29.981Z,101545.22
2022-08-26T22:47:57.160Z,101544.94
2022-08-26T22:50:24.199Z,101550.53
2022-08-26T22:52:51.333Z,101540.69
2022-08-26T22:55:18.344Z,101551.09
2022-08-26T22:57:45.185Z,101541.38
2022-08-26T23:00:13.996Z,101538.56
2022-08-26T23:02:42.351Z,101549.31
2022-08-26T23:05:11.403Z,101552.31
2022-08-26T23:07:38.586Z,101543.28
2022-08-26T23:10:08.330Z,101549.72
2022-08-26T23:12:37.752Z,101541.97
2022-08-26T23:15:06.065Z,101547.78
2022-08-26T23:17:33.572Z,101552.09
2022-08-26T23:20:02.103Z,101548.31
2022-08-26T23:22:31.370Z,101538.59
2022-08-26T23:25:02.497Z,101545.00
2022-08-26T23:27:34.793Z,101536.81
2022-08-26T23:30:01.709Z,101538.31
2022-08-26T23:32:28.552Z,101546.22
2022-08-26T23:34:59.542Z,101535.56
2022-08-26T23:37:31.531Z,101540.81
2022-08-26T23:40:02.106Z,101545.59
2022-08-26T23:42:30.633Z,101547.59
2022-08-26T23:44:57.436Z,101549.91
2022-08-26T23:47:25.220Z,101539.22
2022-08-26T23:49:51.983Z,101545.19
2022-08-26T23:52:37.078Z,101544.19
2022-08-26T23:55:06.400Z,101544.84
2022-08-26T23:57:33.722Z,101546.03
